createdAt,value
2022-08-02T00:00:09.295Z,0.28
2022-08-02T00:05:14.690Z,0.20
2022-08-02T00:10:18.345Z,0.20
2022-08-02T00:15:22.089Z,0.20
2022-08-02T00:20:27.158Z,0.20
2022-08-02T00:25:30.830Z,0.32
2022-08-02T00:30:34.528Z,0.30
2022-08-02T00:35:40.451Z,0.30
2022-08-02T00:40:48.766Z,0.28
2022-08-02T00:45:58.943Z,0.22
2022-08-02T00:51:09.075Z,0.15
2022-08-02T00:56:12.791Z,0.30
2022-08-02T01:01:16.857Z,0.67
2022-08-02T01:06:22.063Z,0.20
2022-08-02T01:11:25.857Z,0.43
2022-08-02T01:16:32.814Z,0.20
2022-08-02T01:22:06.627Z,0.40
2022-08-02T01:27:26.950Z,0.30
2022-08-02T01:32:38.146Z,0.30
2022-08-02T01:37:49.535Z,0.50
2022-08-02T01:42:55.246Z,0.30
2022-08-02T01:48:01.826Z,0.20
2022-08-02T01:53:09.126Z,0.10
2022-08-02T01:58:15.902Z,0.30
2022-08-02T02:03:24.756Z,0.40
2022-08-02T02:08:32.221Z,0.30
2022-08-02T02:13:38.781Z,0.10
2022-08-02T02:18:46.046Z,0.30
2022-08-02T02:23:50.920Z,0.60
2022-08-02T02:28:57.455Z,0.47
2022-08-02T02:34:05.645Z,0.30
2022-08-02T02:39:13.762Z,0.20
2022-08-02T02:44:21.511Z,0.10
2022-08-02T02:49:27.934Z,0.47
2022-08-02T02:54:35.427Z,0.68
2022-08-02T02:59:42.927Z,0.22
2022-08-02T03:04:58.170Z,0.30
2022-08-02T03:10:02.230Z,0.30
2022-08-02T03:15:09.401Z,0.25
2022-08-02T03:20:16.083Z,0.30
2022-08-02T03:25:20.245Z,0.37
2022-08-02T03:30:26.930Z,0.35
2022-08-02T03:35:32.378Z,0.35
2022-08-02T03:40:37.620Z,0.35
2022-08-02T03:45:45.066Z,0.62
2022-08-02T03:50:53.735Z,0.40
2022-08-02T03:55:58.174Z,0.25
2022-08-02T04:01:02.322Z,0.50
2022-08-02T04:06:07.788Z,0.30
2022-08-02T04:11:28.661Z,0.90
2022-08-02T04:16:40.955Z,0.62
2022-08-02T04:21:52.219Z,0.52
2022-08-02T04:26:58.308Z,0.47
2022-08-02T04:32:05.973Z,0.70
2022-08-02T04:37:12.673Z,0.57
2022-08-02T04:42:22.928Z,1.00
2022-08-02T04:48:02.053Z,0.75
2022-08-02T04:52:51.754Z,0.80
2022-08-02T04:57:58.706Z,0.98
2022-08-02T05:03:02.633Z,0.60
2022-08-02T05:08:07.839Z,1.10
2022-08-02T05:13:11.519Z,0.77
2022-08-02T05:18:15.134Z,0.97
2022-08-02T05:23:20.658Z,0.75
2022-08-02T05:28:25.122Z,0.88
2022-08-02T05:38:37.023Z,0.65
2022-08-02T05:43:41.278Z,0.93
2022-08-02T05:48:45.717Z,1.17
2022-08-02T05:53:55.384Z,1.50
2022-08-02T05:59:06.190Z,1.40
2022-08-02T06:04:12.376Z,1.98
2022-08-02T06:09:23.035Z,2.17
2022-08-02T06:14:32.968Z,2.00
2022-08-02T06:19:51.566Z,2.58
2022-08-02T06:24:58.182Z,1.98
2022-08-02T06:30:02.849Z,2.28
2022-08-02T06:35:07.431Z,1.87
2022-08-02T06:40:19.793Z,1.58
2022-08-02T06:45:23.499Z,1.60
2022-08-02T06:50:27.167Z,1.60
2022-08-02T06:55:32.312Z,1.20
2022-08-02T07:00:47.325Z,1.55
2022-08-02T07:05:50.927Z,1.47
2022-08-02T07:10:58.317Z,1.43
2022-08-02T07:16:03.368Z,1.17
2022-08-02T07:21:08.779Z,1.42
2022-08-02T07:26:13.904Z,0.98
2022-08-02T07:31:17.505Z,0.50
2022-08-02T07:36:22.766Z,0.40
2022-08-02T07:41:27.957Z,0.35
2022-08-02T07:46:33.374Z,0.40
2022-08-02T07:51:37.067Z,0.40
2022-08-02T07:56:42.034Z,0.77
2022-08-02T08:01:46.123Z,0.28
2022-08-02T08:06:52.144Z,0.20
2022-08-02T08:11:57.153Z,0.22
2022-08-02T08:17:00.923Z,0.30
2022-08-02T08:22:04.829Z,0.30
2022-08-02T08:27:14.664Z,0.28
2022-08-02T08:32:19.656Z,0.28
2022-08-02T08:37:23.582Z,0.17
2022-08-02T08:42:29.647Z,0.57
2022-08-02T08:47:37.230Z,0.40
2022-08-02T08:52:44.267Z,0.40
2022-08-02T08:57:49.299Z,0.30
2022-08-02T09:02:52.920Z,0.28
2022-08-02T09:07:56.605Z,0.30
2022-08-02T09:13:31.234Z,0.20
2022-08-02T09:18:39.811Z,0.37
2022-08-02T09:23:46.284Z,0.25
2022-08-02T09:28:53.301Z,0.37
2022-08-02T09:33:59.173Z,0.30
2022-08-02T09:39:05.524Z,0.43
2022-08-02T09:44:15.890Z,0.10
2022-08-02T09:49:20.788Z,0.20
2022-08-02T09:54:26.200Z,0.40
2022-08-02T09:59:31.740Z,0.17
2022-08-02T10:04:52.151Z,0.60
2022-08-02T10:09:58.156Z,0.50
2022-08-02T10:15:04.069Z,0.40
2022-08-02T10:20:08.548Z,0.73
2022-08-02T10:25:12.725Z,0.60
2022-08-02T10:30:18.113Z,0.40
2022-08-02T10:35:26.627Z,0.30
2022-08-02T10:40:48.097Z,0.40
2022-08-02T10:45:53.787Z,0.50
2022-08-02T10:50:57.900Z,0.20
2022-08-02T10:56:04.085Z,0.47
2022-08-02T11:01:38.841Z,0.20
2022-08-02T11:07:11.442Z,0.10
2022-08-02T11:12:17.495Z,0.10
2022-08-02T11:17:22.477Z,0.40
2022-08-02T11:22:26.294Z,0.20
2022-08-02T11:27:31.388Z,0.20
2022-08-02T11:32:36.447Z,0.52
2022-08-02T11:37:41.458Z,0.47
2022-08-02T11:42:49.643Z,0.30
2022-08-02T11:47:56.175Z,0.30
2022-08-02T11:52:59.858Z,0.37
2022-08-02T11:58:06.297Z,0.40
2022-08-02T12:03:13.576Z,0.35
2022-08-02T12:08:25.188Z,0.35
2022-08-02T12:13:29.335Z,0.43
2022-08-02T12:18:52.046Z,0.30
2022-08-02T12:23:59.929Z,0.20
2022-08-02T12:29:04.840Z,0.45
2022-08-02T12:34:18.422Z,0.30
2022-08-02T12:39:22.079Z,0.20
2022-08-02T12:44:25.835Z,0.43
2022-08-02T12:49:31.317Z,0.30
2022-08-02T12:54:41.613Z,0.25
2022-08-02T12:59:50.543Z,0.52
2022-08-02T13:04:55.739Z,0.30
2022-08-02T13:10:02.539Z,0.30
2022-08-02T13:15:12.390Z,0.32
2022-08-02T13:20:32.981Z,0.20
2022-08-02T13:25:36.714Z,0.30
2022-08-02T13:30:40.555Z,0.20
2022-08-02T13:35:46.666Z,0.20
2022-08-02T13:41:07.778Z,0.30
2022-08-02T13:46:11.503Z,0.20
2022-08-02T13:51:16.529Z,0.20
2022-08-02T13:56:20.205Z,0.35
2022-08-02T14:01:39.512Z,0.22
2022-08-02T14:06:44.687Z,0.30
2022-08-02T14:11:48.561Z,0.20
2022-08-02T14:16:52.330Z,0.20
2022-08-02T14:22:11.070Z,0.40
2022-08-02T14:27:16.008Z,0.25
2022-08-02T14:32:19.802Z,0.35
2022-08-02T14:37:33.303Z,0.40
2022-08-02T14:42:38.038Z,0.10
2022-08-02T14:47:41.744Z,0.40
2022-08-02T14:52:47.135Z,0.30
2022-08-02T14:57:53.530Z,0.25
2022-08-02T15:02:57.190Z,0.10
2022-08-02T15:08:02.322Z,0.05
2022-08-02T15:13:07.394Z,0.10
2022-08-02T15:18:11.301Z,0.20
2022-08-02T15:23:24.846Z,0.15
2022-08-02T15:28:38.714Z,0.20
2022-08-02T15:33:56.154Z,0.32
2022-08-02T15:45:24.113Z,0.20
2022-08-02T15:57:37.012Z,0.30
2022-08-02T16:02:40.969Z,0.65
2022-08-02T16:07:44.643Z,0.17
2022-08-02T16:35:29.920Z,0.20
2022-08-02T16:40:34.457Z,0.25
2022-08-02T16:45:38.338Z,0.30
2022-08-02T16:50:46.472Z,0.10
2022-08-02T16:55:51.943Z,0.20
2022-08-02T17:24:18.175Z,0.13
2022-08-02T17:29:24.175Z,0.30
2022-08-02T17:46:02.454Z,0.32
2022-08-02T17:51:06.445Z,0.20
2022-08-02T17:56:57.592Z,0.30
2022-08-02T18:53:41.234Z,0.52
2022-08-02T19:15:51.645Z,0.28
2022-08-02T19:39:45.770Z,0.40
2022-08-02T19:44:49.984Z,0.47
2022-08-02T19:49:53.750Z,0.30
2022-08-02T19:55:58.518Z,0.20
2022-08-02T20:00:24.015Z,0.13
2022-08-02T20:11:25.604Z,0.30
2022-08-02T22:11:17.340Z,0.43
2022-08-02T22:16:22.479Z,0.60
2022-08-02T22:26:51.273Z,0.37
2022-08-02T22:31:54.924Z,0.95
2022-08-02T22:37:00.003Z,0.20
2022-08-02T22:42:05.790Z,0.50
2022-08-02T22:47:28.645Z,0.75
2022-08-02T22:52:42.676Z,0.50
2022-08-02T22:57:56.624Z,0.82
2022-08-02T22:59:04.668Z,0.32
2022-08-02T23:03:00.597Z,0.82
2022-08-02T23:08:04.499Z,0.10
2022-08-02T23:13:09.441Z,0.70
2022-08-02T23:18:30.971Z,0.70
2022-08-02T23:23:34.577Z,0.52
2022-08-02T23:28:39.729Z,0.20
2022-08-02T23:34:04.444Z,0.40
2022-08-02T23:39:06.989Z,0.73
2022-08-02T23:44:14.783Z,0.40
2022-08-02T23:49:19.679Z,0.60
2022-08-02T23:54:23.443Z,0.40
2022-08-02T23:59:28.526Z,0.30
